Time;durP1;ratioP1;P1;durP2;ratioP2;P2;SDS_P1;SDS_P2;PMS_P1;PMS_P2;Temp;Humidity;BMP_temperature;BMP_pressure;BME280_temperature;BME280_humidity;BME280_pressure;Samples;Min_cycle;Max_cycle;Signal;HPM_P1;HPM_P2
2024/02/03 00:01:49;;;;;;;14.30;5.40;;;;;;;8.78;100.00;101736.84;5069235;28;20206;-72
2024/02/03 00:04:15;;;;;;;8.07;3.83;;;;;;;9.54;100.00;101839.28;5069960;28;20198;-73
2024/02/03 00:06:41;;;;;;;12.00;4.27;;;;;;;8.91;100.00;101714.13;5073565;28;20235;-72
2024/02/03 00:09:07;;;;;;;8.90;3.70;;;;;;;9.39;100.00;101761.47;5070995;28;20649;-73
2024/02/03 00:11:33;;;;;;;8.40;3.43;;;;;;;9.64;100.00;101783.72;5071320;28;20435;-73
2024/02/03 00:13:59;;;;;;;10.67;4.40;;;;;;;9.38;100.00;101735.72;5081421;28;20529;-73
2024/02/03 00:16:27;;;;;;;10.27;4.20;;;;;;;9.03;100.00;101665.47;5078891;28;20455;-73
2024/02/03 00:18:53;;;;;;;7.50;3.50;;;;;;;9.53;100.00;101770.69;5075028;28;20661;-72
2024/02/03 00:21:18;;;;;;;10.80;4.30;;;;;;;9.60;100.00;101781.53;5069833;28;20821;-72
2024/02/03 00:23:45;;;;;;;11.17;4.10;;;;;;;8.91;100.00;101685.56;5072275;28;20182;-72
2024/02/03 00:26:11;;;;;;;8.80;4.10;;;;;;;9.32;100.00;101738.25;5076741;28;20214;-72
2024/02/03 00:28:37;;;;;;;12.83;4.63;;;;;;;9.57;100.00;101796.09;5074270;28;21090;-72
2024/02/03 00:31:02;;;;;;;12.83;3.97;;;;;;;9.19;100.00;101744.91;5073850;28;23814;-73
2024/02/03 00:33:28;;;;;;;10.30;4.10;;;;;;;8.90;100.00;101704.44;5072421;28;20190;-72
2024/02/03 00:35:53;;;;;;;15.73;4.40;;;;;;;8.85;100.00;101696.91;5074561;28;20183;-72
2024/02/03 00:38:19;;;;;;;12.93;4.27;;;;;;;9.38;100.00;101775.88;5071851;28;20210;-72
2024/02/03 00:40:44;;;;;;;10.60;4.17;;;;;;;9.51;100.00;101794.09;5075084;28;20183;-72
2024/02/03 00:43:10;;;;;;;13.13;4.50;;;;;;;8.70;100.00;101695.91;5072769;28;20183;-72
2024/02/03 00:45:35;;;;;;;10.53;4.57;;;;;;;9.12;100.00;101831.41;5076185;28;20655;-72
2024/02/03 00:48:01;;;;;;;9.00;4.00;;;;;;;9.19;100.00;101886.78;5074407;28;20553;-72
2024/02/03 00:50:26;;;;;;;11.00;4.50;;;;;;;8.89;100.00;101860.63;5075254;28;20188;-72
2024/02/03 00:52:52;;;;;;;12.10;4.50;;;;;;;9.34;100.00;101956.59;5082303;28;20178;-73
2024/02/03 00:55:17;;;;;;;9.63;4.00;;;;;;;9.14;100.00;101942.69;5077485;28;20190;-72
2024/02/03 00:57:43;;;;;;;15.43;4.63;;;;;;;9.41;100.00;101963.00;5076742;28;20276;-72
2024/02/03 01:00:09;;;;;;;11.73;3.90;;;;;;;9.42;100.00;101966.50;5076977;28;20182;-72
2024/02/03 01:02:35;;;;;;;9.37;3.50;;;;;;;9.26;100.00;101959.28;5080812;28;20185;-72
2024/02/03 01:05:01;;;;;;;11.13;4.40;;;;;;;9.37;100.00;101990.25;5081432;28;20792;-72
2024/02/03 01:07:27;;;;;;;11.60;4.27;;;;;;;9.15;100.00;101922.09;5075722;28;20468;-72
2024/02/03 01:09:52;;;;;;;16.83;3.97;;;;;;;8.61;100.00;101836.78;5077871;28;20580;-72
2024/02/03 01:12:18;;;;;;;15.27;4.67;;;;;;;9.41;100.00;101987.09;5075394;28;20234;-72
2024/02/03 01:14:43;;;;;;;12.13;4.50;;;;;;;9.24;100.00;101927.28;5069773;28;20558;-72
2024/02/03 01:17:09;;;;;;;16.97;4.53;;;;;;;8.72;100.00;101836.50;5073372;28;20286;-73
2024/02/03 01:19:35;;;;;;;12.50;4.83;;;;;;;9.24;100.00;101887.13;5074676;28;20179;-72
2024/02/03 01:22:01;;;;;;;9.53;3.70;;;;;;;8.78;100.00;101833.16;5075142;28;20335;-73
2024/02/03 01:24:27;;;;;;;11.47;4.20;;;;;;;9.14;100.00;101907.00;5076993;28;20953;-72
2024/02/03 01:26:52;;;;;;;11.30;4.83;;;;;;;9.43;100.00;101936.03;5073129;28;20531;-73
2024/02/03 01:29:18;;;;;;;11.40;4.27;;;;;;;9.14;100.00;101866.88;5066635;28;20215;-73
2024/02/03 01:31:43;;;;;;;13.13;4.43;;;;;;;9.00;100.00;101828.22;5069513;28;20745;-73
2024/02/03 01:34:09;;;;;;;10.87;4.60;;;;;;;8.88;100.00;101805.44;5072112;28;20187;-72
2024/02/03 01:36:34;;;;;;;12.60;4.40;;;;;;;9.21;100.00;101874.09;5077373;28;20182;-72
2024/02/03 01:39:00;;;;;;;15.40;5.10;;;;;;;9.01;100.00;101853.97;5073732;28;20205;-72
2024/02/03 01:41:27;;;;;;;9.30;4.27;;;;;;;9.24;100.00;101878.28;5072356;28;20192;-73
2024/02/03 01:43:52;;;;;;;11.47;4.00;;;;;;;9.55;100.00;101907.13;5072771;28;20191;-73
2024/02/03 01:46:19;;;;;;;12.77;4.10;;;;;;;8.91;100.00;101815.78;5072943;28;20864;-73
2024/02/03 01:48:45;;;;;;;10.70;3.80;;;;;;;9.28;100.00;101860.88;5075369;28;20210;-72
2024/02/03 01:51:13;;;;;;;12.23;4.33;;;;;;;9.38;100.00;101884.84;5071686;28;20432;-72
2024/02/03 01:53:39;;;;;;;9.53;3.37;;;;;;;8.95;100.00;101803.78;5073503;28;20506;-72
2024/02/03 01:56:05;;;;;;;11.47;3.47;;;;;;;9.38;100.00;101866.09;5073061;28;20940;-73
2024/02/03 01:58:31;;;;;;;10.77;3.70;;;;;;;9.46;100.00;101877.66;5075540;28;20457;-72
2024/02/03 02:00:57;;;;;;;10.50;3.97;;;;;;;9.57;100.00;101884.50;5076527;28;20432;-72
2024/02/03 02:03:22;;;;;;;11.73;3.30;;;;;;;9.05;100.00;101788.41;5075926;28;20183;-72
2024/02/03 02:05:48;;;;;;;11.97;3.40;;;;;;;9.02;100.00;101799.44;5077604;28;20214;-72
2024/02/03 02:08:13;;;;;;;11.00;3.43;;;;;;;8.95;100.00;101793.09;5070308;28;20249;-72
2024/02/03 02:10:39;;;;;;;11.37;3.47;;;;;;;9.30;100.00;101820.56;5069295;28;20749;-72
2024/02/03 02:13:04;;;;;;;10.10;2.60;;;;;;;8.84;100.00;101740.72;5071844;28;20183;-72
2024/02/03 02:15:30;;;;;;;10.53;3.10;;;;;;;8.77;100.00;101753.94;5071596;28;20253;-72
2024/02/03 02:18:00;;;;;;;10.10;3.17;;;;;;;9.42;100.00;101828.09;5073634;28;20214;-72
2024/02/03 02:20:26;;;;;;;13.10;3.30;;;;;;;9.47;100.00;101838.31;5070986;28;25064;-72
2024/02/03 02:22:52;;;;;;;10.90;3.50;;;;;;;9.59;100.00;101857.56;5078608;28;20489;-72
2024/02/03 02:25:18;;;;;;;11.30;3.00;;;;;;;8.96;100.00;101776.84;5078384;28;20436;-72
2024/02/03 02:27:43;;;;;;;10.13;2.93;;;;;;;9.52;100.00;101852.03;5072478;28;20566;-72
2024/02/03 02:30:10;;;;;;;16.53;4.03;;;;;;;8.89;100.00;101758.97;5078951;28;20847;-72
2024/02/03 02:32:36;;;;;;;14.80;2.87;;;;;;;9.52;100.00;101862.75;5072554;28;20194;-72
2024/02/03 02:35:02;;;;;;;10.27;3.17;;;;;;;8.73;100.00;101715.13;5078648;28;20436;-72
2024/02/03 02:37:28;;;;;;;12.63;3.40;;;;;;;9.28;100.00;101792.09;5073336;28;20526;-72
2024/02/03 02:39:53;;;;;;;14.10;3.27;;;;;;;8.97;100.00;101762.47;5074655;28;20186;-72
2024/02/03 02:42:19;;;;;;;16.20;3.63;;;;;;;8.91;100.00;101747.09;5074991;28;20199;-72
2024/02/03 02:44:44;;;;;;;13.77;3.30;;;;;;;8.29;100.00;101626.28;5052514;22;20220;-81
2024/02/03 02:47:10;;;;;;;10.33;3.07;;;;;;;7.24;100.00;101442.44;5037841;28;20195;-82
2024/02/03 02:49:35;;;;;;;9.17;2.77;;;;;;;6.62;100.00;101359.19;5040192;28;20220;-81
2024/02/03 02:52:01;;;;;;;7.93;2.70;;;;;;;8.75;100.00;101707.78;5039685;28;20282;-81
2024/02/03 02:54:26;;;;;;;11.90;3.00;;;;;;;6.90;100.00;101414.97;5039644;28;20838;-81
2024/02/03 02:56:52;;;;;;;12.90;3.33;;;;;;;7.61;100.00;101480.41;5042446;28;20187;-81
2024/02/03 02:59:17;;;;;;;12.43;3.17;;;;;;;7.44;100.00;101507.06;5039942;28;20295;-81
2024/02/03 03:01:43;;;;;;;10.80;3.20;;;;;;;6.41;100.00;101284.16;5039960;28;20180;-81
2024/02/03 03:04:09;;;;;;;12.40;3.10;;;;;;;6.77;100.00;101319.44;5046156;28;20191;-81
2024/02/03 03:06:34;;;;;;;10.80;3.50;;;;;;;7.23;100.00;101440.78;5037567;28;20198;-81
2024/02/03 03:09:00;;;;;;;11.73;3.03;;;;;;;8.60;100.00;101621.19;5040635;28;20231;-81
2024/02/03 03:11:25;;;;;;;11.07;3.73;;;;;;;7.28;100.00;101424.25;5039985;28;20191;-81
2024/02/03 03:13:51;;;;;;;9.43;3.40;;;;;;;6.96;100.00;101339.66;5037101;28;20278;-81
2024/02/03 03:16:16;;;;;;;16.10;3.70;;;;;;;8.42;100.00;101585.72;5035305;28;20199;-81
2024/02/03 03:18:42;;;;;;;14.73;3.37;;;;;;;6.71;100.00;101320.94;5037410;28;20708;-81
2024/02/03 03:21:08;;;;;;;9.20;3.03;;;;;;;7.43;100.00;101478.69;5038551;28;20191;-81
2024/02/03 03:23:34;;;;;;;10.00;3.10;;;;;;;7.83;100.00;101535.00;5038493;28;20606;-81
2024/02/03 03:26:00;;;;;;;10.63;3.10;;;;;;;9.61;100.00;101777.88;5041926;28;20192;-81
2024/02/03 03:28:26;;;;;;;11.17;3.50;;;;;;;7.49;100.00;101453.16;5040940;28;20467;-81
2024/02/03 03:30:52;;;;;;;13.43;3.90;;;;;;;7.74;100.00;101474.59;5040277;28;20457;-81
2024/02/03 03:33:18;;;;;;;9.50;2.57;;;;;;;7.13;100.00;101413.38;5043269;28;20580;-81
2024/02/03 03:35:43;;;;;;;12.50;2.70;;;;;;;6.96;100.00;101419.66;5043312;28;20503;-81
2024/02/03 03:38:10;;;;;;;9.27;2.33;;;;;;;7.64;100.00;101488.09;5040576;28;20208;-81
2024/02/03 03:40:37;;;;;;;10.93;3.23;;;;;;;7.45;100.00;101462.50;5038370;28;20218;-82
2024/02/03 03:43:04;;;;;;;11.37;2.73;;;;;;;8.47;100.00;101658.25;5039161;28;20447;-81
2024/02/03 03:45:30;;;;;;;10.27;2.50;;;;;;;7.03;100.00;101372.69;5038359;28;20914;-81
2024/02/03 03:47:56;;;;;;;10.70;3.20;;;;;;;6.72;100.00;101303.09;5037824;28;20597;-81
2024/02/03 03:50:21;;;;;;;8.03;2.43;;;;;;;7.35;100.00;101467.16;5036725;28;20218;-82
2024/02/03 03:52:47;;;;;;;16.25;3.00;;;;;;;6.68;100.00;101317.72;5040471;28;20485;-82
2024/02/03 03:55:12;;;;;;;12.60;2.97;;;;;;;7.33;100.00;101474.50;5042908;28;20266;-81
2024/02/03 03:57:38;;;;;;;12.95;3.15;;;;;;;8.13;100.00;101603.88;5039203;28;20217;-82
2024/02/03 04:00:09;;;;;;;9.87;2.53;;;;;;;7.93;100.00;101557.09;5045053;28;20187;-81
2024/02/03 04:02:35;;;;;;;11.00;2.80;;;;;;;6.57;100.00;101346.34;5040029;28;20267;-82
2024/02/03 04:05:00;;;;;;;13.40;3.50;;;;;;;7.68;100.00;101534.81;5037348;28;20565;-81
2024/02/03 04:07:26;;;;;;;7.57;2.63;;;;;;;7.59;100.00;101603.38;5039776;28;20304;-82
2024/02/03 04:09:51;;;;;;;9.47;2.70;;;;;;;6.50;100.00;101385.28;5051267;28;20212;-81
2024/02/03 04:12:17;;;;;;;9.87;2.90;;;;;;;7.16;100.00;101565.13;5038733;28;20223;-82
2024/02/03 04:14:43;;;;;;;11.67;3.33;;;;;;;8.46;100.00;101740.31;5036947;28;20220;-80
2024/02/03 04:17:13;;;;;;;10.60;2.77;;;;;;;8.35;100.00;101695.13;5039547;28;20187;-81
2024/02/03 04:19:38;;;;;;;7.93;2.60;;;;;;;8.34;100.00;101696.13;5040771;28;20439;-82
2024/02/03 04:22:04;;;;;;;12.57;2.53;;;;;;;7.45;100.00;101590.63;5034435;28;20445;-82
2024/02/03 04:24:29;;;;;;;16.07;3.00;;;;;;;6.69;100.00;101410.06;5041862;28;20196;-82
2024/02/03 04:26:55;;;;;;;12.27;2.97;;;;;;;7.63;100.00;101569.16;5037058;28;20191;-81
2024/02/03 04:29:20;;;;;;;12.47;2.70;;;;;;;9.60;100.00;101872.59;5039458;28;20225;-81
2024/02/03 04:31:46;;;;;;;16.43;2.77;;;;;;;7.36;100.00;101568.41;5042478;28;20249;-81
2024/02/03 04:34:11;;;;;;;8.17;2.50;;;;;;;7.69;100.00;101629.94;5036650;28;20206;-81
2024/02/03 04:36:37;;;;;;;12.23;3.13;;;;;;;7.16;100.00;101514.44;5039419;28;20183;-82
2024/02/03 04:39:04;;;;;;;11.00;3.50;;;;;;;8.27;100.00;101663.03;5034952;28;20221;-81
2024/02/03 04:41:29;;;;;;;11.87;2.60;;;;;;;8.52;100.00;101768.22;5038555;28;20188;-82
2024/02/03 04:43:55;;;;;;;10.70;3.10;;;;;;;7.46;100.00;101552.25;5037909;28;20451;-82
2024/02/03 04:46:20;;;;;;;9.43;2.60;;;;;;;7.86;100.00;101609.47;5031586;28;20273;-81
2024/02/03 04:48:47;;;;;;;8.07;2.33;;;;;;;6.86;100.00;101417.13;5043297;28;20211;-82
2024/02/03 04:51:14;;;;;;;11.37;2.70;;;;;;;7.57;100.00;101591.19;5035142;28;20196;-81
2024/02/03 04:53:40;;;;;;;15.50;3.50;;;;;;;8.39;100.00;101696.53;5034327;28;20484;-81
2024/02/03 04:56:06;;;;;;;9.47;2.60;;;;;;;6.05;100.00;101356.22;5033662;28;20446;-81
2024/02/03 04:58:32;;;;;;;10.43;3.00;;;;;;;6.95;100.00;101480.16;5032992;28;20336;-81
2024/02/03 05:00:58;;;;;;;14.73;3.20;;;;;;;7.79;100.00;101664.56;5037380;28;20450;-81
2024/02/03 05:03:23;;;;;;;8.90;2.67;;;;;;;7.20;100.00;101554.97;5027023;28;20645;-82
2024/02/03 05:05:49;;;;;;;11.63;3.80;;;;;;;9.15;100.00;101939.00;5029863;28;20195;-81
2024/02/03 05:08:14;;;;;;;17.40;3.50;;;;;;;6.97;100.00;101563.53;5038035;28;20265;-81
2024/02/03 05:10:40;;;;;;;20.23;3.97;;;;;;;7.15;100.00;101595.47;5035992;28;20219;-81
2024/02/03 05:13:05;;;;;;;11.37;3.43;;;;;;;5.74;100.00;101404.53;5035391;28;20191;-82
2024/02/03 05:15:31;;;;;;;10.97;3.20;;;;;;;6.62;100.00;101536.94;5034340;28;20276;-81
2024/02/03 05:17:56;;;;;;;10.20;2.60;;;;;;;8.73;100.00;101882.78;5034122;28;20427;-81
2024/02/03 05:20:22;;;;;;;11.80;2.80;;;;;;;6.86;100.00;101594.97;5038778;28;20179;-81
2024/02/03 05:22:47;;;;;;;13.00;3.67;;;;;;;6.74;100.00;101576.56;5040276;28;21328;-82
2024/02/03 05:25:14;;;;;;;13.77;3.03;;;;;;;7.00;100.00;101667.25;5033585;28;20963;-82
2024/02/03 05:27:40;;;;;;;12.70;2.90;;;;;;;7.63;100.00;101711.50;5042429;28;20707;-82
2024/02/03 05:30:07;;;;;;;11.93;3.50;;;;;;;6.50;100.00;101581.69;5036661;28;20528;-82
2024/02/03 05:32:32;;;;;;;13.60;3.47;;;;;;;6.92;100.00;101629.84;5038460;28;20974;-82
2024/02/03 05:34:58;;;;;;;8.97;3.30;;;;;;;7.46;100.00;101720.41;5042595;28;20497;-82
2024/02/03 05:37:23;;;;;;;12.00;3.07;;;;;;;9.34;100.00;102028.06;5044204;28;20402;-82
2024/02/03 05:39:49;;;;;;;11.87;3.13;;;;;;;8.07;100.00;101838.81;5049285;28;20176;-81
2024/02/03 05:42:14;;;;;;;13.50;2.90;;;;;;;7.45;100.00;101735.59;5047858;28;20215;-82
2024/02/03 05:44:39;;;;;;;10.23;3.40;;;;;;;7.15;100.00;101678.19;5047311;28;20204;-81
2024/02/03 05:47:05;;;;;;;9.33;2.93;;;;;;;6.22;100.00;101514.31;5047128;28;20689;-81
2024/02/03 05:49:30;;;;;;;8.80;2.83;;;;;;;8.41;100.00;101883.50;5046759;28;20220;-81
2024/02/03 05:51:56;;;;;;;13.15;2.65;;;;;;;6.88;100.00;101612.47;5049876;28;20258;-82
2024/02/03 05:54:21;;;;;;;12.17;3.40;;;;;;;7.58;100.00;101763.72;5045021;28;20219;-82
2024/02/03 05:56:47;;;;;;;11.40;3.23;;;;;;;5.98;100.00;101467.84;5037819;28;20777;-81
2024/02/03 05:59:13;;;;;;;13.70;3.30;;;;;;;8.24;100.00;101843.25;5034514;28;20196;-81
2024/02/03 06:01:38;;;;;;;15.47;3.20;;;;;;;7.00;100.00;101685.91;5035599;28;20437;-81
2024/02/03 06:04:08;;;;;;;12.37;3.77;;;;;;;8.25;100.00;101874.34;5044954;28;20184;-81
2024/02/03 06:06:33;;;;;;;12.50;3.30;;;;;;;7.45;100.00;101753.47;5035793;28;20661;-81
2024/02/03 06:08:59;;;;;;;14.33;3.67;;;;;;;7.60;100.00;101785.75;5045277;28;20493;-82
2024/02/03 06:11:24;;;;;;;11.27;3.40;;;;;;;7.73;100.00;101828.09;5048113;28;20203;-81
2024/02/03 06:13:50;;;;;;;11.27;3.00;;;;;;;7.30;100.00;101782.53;5038753;28;20180;-81
2024/02/03 06:16:15;;;;;;;8.97;2.73;;;;;;;7.93;100.00;101861.63;5045182;28;21281;-81
2024/02/03 06:18:41;;;;;;;11.33;3.83;;;;;;;7.85;100.00;101886.44;5045952;28;20563;-82
2024/02/03 06:21:06;;;;;;;12.37;3.93;;;;;;;7.45;100.00;101805.00;5042088;28;20557;-82
2024/02/03 06:23:31;;;;;;;14.03;3.57;;;;;;;7.25;100.00;101793.66;5041319;28;20307;-81
2024/02/03 06:25:57;;;;;;;12.00;3.30;;;;;;;8.03;100.00;101963.88;5043336;28;20639;-82
2024/02/03 06:28:24;;;;;;;15.20;4.00;;;;;;;6.44;100.00;101659.56;5043622;28;20204;-81
2024/02/03 06:30:49;;;;;;;13.60;5.00;;;;;;;8.20;100.00;101919.41;5041696;28;20191;-81
2024/02/03 06:33:15;;;;;;;8.53;3.47;;;;;;;8.09;100.00;101954.41;5041748;28;20434;-81
2024/02/03 06:35:40;;;;;;;18.50;3.60;;;;;;;6.41;100.00;101731.84;5043498;28;20179;-82
2024/02/03 06:38:06;;;;;;;13.20;4.20;;;;;;;7.07;100.00;101800.84;5040090;28;20208;-81
2024/02/03 06:40:31;;;;;;;9.95;3.30;;;;;;;6.84;100.00;101772.94;5041478;28;20184;-81
2024/02/03 06:42:56;;;;;;;18.75;5.10;;;;;;;6.79;100.00;101734.22;5038242;28;20183;-82
2024/02/03 06:45:22;;;;;;;14.47;4.33;;;;;;;7.23;100.00;101864.19;5039923;28;20650;-82
2024/02/03 06:47:47;;;;;;;14.03;5.10;;;;;;;8.97;100.00;102130.94;5046343;28;20261;-82
2024/02/03 06:50:13;;;;;;;14.23;4.77;;;;;;;6.48;100.00;101693.78;5041913;28;20249;-82
2024/02/03 06:52:38;;;;;;;12.90;4.03;;;;;;;7.01;100.00;101788.94;5042806;28;20175;-82
2024/02/03 06:55:04;;;;;;;13.70;4.90;;;;;;;7.41;100.00;101857.03;5040749;28;20218;-81
2024/02/03 06:57:30;;;;;;;13.00;4.23;;;;;;;8.72;100.00;102092.44;5040245;28;20323;-82
2024/02/03 06:59:55;;;;;;;15.77;3.93;;;;;;;5.91;100.00;101668.28;5041116;28;20608;-82
2024/02/03 07:02:21;;;;;;;15.30;4.63;;;;;;;7.53;100.00;101907.53;5037143;28;20652;-82
2024/02/03 07:04:46;;;;;;;12.00;4.20;;;;;;;7.24;100.00;101840.03;5042817;28;20203;-81
2024/02/03 07:07:13;;;;;;;14.35;4.55;;;;;;;7.04;100.00;101835.00;5036078;28;20193;-82
2024/02/03 07:09:39;;;;;;;10.40;3.77;;;;;;;8.05;100.00;101958.41;5032862;28;20242;-82
2024/02/03 07:12:04;;;;;;;11.50;4.30;;;;;;;6.15;100.00;101686.41;5045908;28;20443;-81
2024/02/03 07:14:30;;;;;;;10.67;4.20;;;;;;;6.29;100.00;101676.09;5048437;28;20229;-82
2024/02/03 07:16:55;;;;;;;9.20;3.47;;;;;;;6.53;100.00;101707.47;5046222;28;20180;-81
2024/02/03 07:19:21;;;;;;;11.27;3.73;;;;;;;6.47;100.00;101701.91;5042395;28;20302;-82
2024/02/03 07:21:46;;;;;;;14.45;4.40;;;;;;;8.28;100.00;102014.88;5035663;28;20230;-81
2024/02/03 07:24:12;;;;;;;12.00;4.23;;;;;;;8.36;100.00;102055.88;5042439;28;20709;-82
2024/02/03 07:26:37;;;;;;;15.03;4.60;;;;;;;6.62;100.00;101798.19;5036966;28;20251;-82
2024/02/03 07:29:03;;;;;;;16.73;3.80;;;;;;;9.25;100.00;102201.22;5043192;28;20219;-82
2024/02/03 07:31:29;;;;;;;9.77;3.40;;;;;;;8.22;100.00;101994.13;5040636;28;20179;-82
2024/02/03 07:33:56;;;;;;;15.37;3.67;;;;;;;6.08;100.00;101625.75;5036242;28;20211;-82
2024/02/03 07:36:22;;;;;;;8.93;3.60;;;;;;;6.47;100.00;101729.41;5035516;28;20435;-81
2024/02/03 07:38:48;;;;;;;12.00;4.00;;;;;;;6.54;100.00;101764.31;5037248;28;20466;-82
2024/02/03 07:41:17;;;;;;;12.33;4.30;;;;;;;7.00;100.00;101791.75;5034870;28;20854;-82
2024/02/03 07:43:45;;;;;;;11.80;4.70;;;;;;;5.81;100.00;101572.47;5043247;28;20195;-82
2024/02/03 07:46:11;;;;;;;11.57;4.30;;;;;;;6.61;100.00;101745.88;5033511;28;20462;-82
2024/02/03 07:48:37;;;;;;;13.30;4.03;;;;;;;8.04;100.00;101935.31;5040893;28;20465;-82
2024/02/03 07:51:03;;;;;;;12.10;4.57;;;;;;;7.90;100.00;101905.53;5037101;28;20504;-81
2024/02/03 07:53:29;;;;;;;10.87;4.47;;;;;;;6.36;100.00;101640.84;5035013;28;20503;-81
2024/02/03 07:55:54;;;;;;;14.43;4.27;;;;;;;7.15;100.00;101770.75;5040249;28;20496;-81
2024/02/03 07:58:20;;;;;;;11.33;3.57;;;;;;;6.73;100.00;101774.00;5034209;28;20192;-81
2024/02/03 08:00:45;;;;;;;15.17;4.60;;;;;;;7.19;100.00;101772.94;5035136;28;20229;-81
2024/02/03 08:03:12;;;;;;;15.37;4.43;;;;;;;6.88;100.00;101787.63;5035356;28;20178;-82
2024/02/03 08:05:37;;;;;;;12.97;4.30;;;;;;;7.40;100.00;101847.34;5037650;28;20226;-81
2024/02/03 08:08:04;;;;;;;14.57;5.23;;;;;;;7.60;100.00;101855.19;5036728;28;20548;-80
2024/02/03 08:10:29;;;;;;;10.97;4.73;;;;;;;6.57;100.00;101698.19;5038318;28;20187;-80
2024/02/03 08:12:55;;;;;;;10.10;4.20;;;;;;;8.41;100.00;102014.50;5037793;28;20599;-80
2024/02/03 08:15:20;;;;;;;14.27;5.00;;;;;;;7.38;100.00;101828.00;5034853;28;20873;-79
2024/02/03 08:17:46;;;;;;;13.70;4.67;;;;;;;6.64;100.00;101686.94;5027956;28;20200;-79
2024/02/03 08:20:12;;;;;;;14.25;4.75;;;;;;;8.68;100.00;102075.03;5038334;28;20200;-79
2024/02/03 08:22:39;;;;;;;12.27;3.93;;;;;;;6.92;100.00;101765.03;5032451;28;21247;-80
2024/02/03 08:25:06;;;;;;;17.73;5.80;;;;;;;7.05;100.00;101760.13;5042346;28;20199;-81
2024/02/03 08:27:31;;;;;;;20.17;3.90;;;;;;;6.58;100.00;101733.69;5058160;28;20458;-81
2024/02/03 08:29:57;;;;;;;13.37;3.93;;;;;;;6.41;100.00;101676.69;5039400;28;20466;-80
2024/02/03 08:32:24;;;;;;;13.95;4.80;;;;;;;7.54;100.00;101899.34;5038564;28;20193;-80
2024/02/03 08:34:50;;;;;;;14.70;4.23;;;;;;;7.30;100.00;101833.25;5044366;28;20194;-79
2024/02/03 08:37:15;;;;;;;16.05;4.60;;;;;;;8.54;100.00;102057.72;5040623;28;20430;-80
2024/02/03 08:39:41;;;;;;;13.17;3.60;;;;;;;8.45;100.00;102042.63;5039920;28;20438;-78
2024/02/03 08:42:06;;;;;;;19.80;5.30;;;;;;;8.26;100.00;101934.81;5036959;28;20641;-79
2024/02/03 08:44:32;;;;;;;13.53;3.97;;;;;;;7.82;100.00;101918.81;5067889;22;20699;-75
2024/02/03 08:46:57;;;;;;;11.95;3.50;;;;;;;6.48;100.00;101669.78;5054066;28;20187;-76
2024/02/03 08:49:23;;;;;;;17.80;4.40;;;;;;;9.44;100.00;102136.72;5058290;28;20241;-76
2024/02/03 08:51:48;;;;;;;12.37;4.53;;;;;;;7.55;100.00;101841.44;5059978;28;20187;-75
2024/02/03 08:54:14;;;;;;;16.17;3.70;;;;;;;8.87;100.00;102100.75;5063012;28;20666;-76
2024/02/03 08:56:40;;;;;;;15.63;3.60;;;;;;;6.91;100.00;101790.00;5061693;28;20643;-76
2024/02/03 08:59:05;;;;;;;10.53;3.50;;;;;;;8.28;100.00;101956.06;5060113;28;20205;-76
2024/02/03 09:01:31;;;;;;;11.70;4.33;;;;;;;6.94;100.00;101776.38;5059101;28;20191;-76
2024/02/03 09:03:56;;;;;;;19.23;4.10;;;;;;;6.74;100.00;101765.00;5055224;28;20195;-75
2024/02/03 09:06:21;;;;;;;14.00;3.30;;;;;;;8.31;100.00;102033.28;5060330;28;20187;-76
2024/02/03 09:08:47;;;;;;;15.60;3.20;;;;;;;7.82;100.00;101856.53;5060952;28;20333;-76
2024/02/03 09:11:13;;;;;;;17.80;3.73;;;;;;;8.10;100.00;101972.09;5057431;28;20694;-75
2024/02/03 09:13:38;;;;;;;12.73;2.83;;;;;;;8.34;100.00;101964.28;5058285;28;20936;-74
2024/02/03 09:16:04;;;;;;;12.23;3.70;;;;;;;7.79;100.00;101851.50;5067048;28;20195;-74
2024/02/03 09:18:30;;;;;;;9.50;3.10;;;;;;;6.96;100.00;101785.06;5058417;28;20284;-74
2024/02/03 09:20:55;;;;;;;11.37;3.40;;;;;;;9.61;100.00;102121.59;5060447;28;20438;-74
2024/02/03 09:23:21;;;;;;;13.57;3.33;;;;;;;7.94;100.00;101882.00;5060620;28;20183;-74
2024/02/03 09:25:49;;;;;;;12.33;2.83;;;;;;;8.53;100.00;101925.00;5066185;28;20221;-74
2024/02/03 09:28:14;;;;;;;17.60;3.70;;;;;;;7.16;100.00;101711.88;5068366;28;20291;-75
2024/02/03 09:30:40;;;;;;;13.33;3.20;;;;;;;7.99;100.00;101814.75;5064259;28;20622;-74
2024/02/03 09:33:05;;;;;;;11.37;2.90;;;;;;;8.33;100.00;101909.16;5063216;28;20190;-75
2024/02/03 09:35:31;;;;;;;16.03;3.00;;;;;;;9.21;100.00;102076.72;5064215;28;20201;-75
2024/02/03 09:37:56;;;;;;;10.73;2.90;;;;;;;7.87;100.00;101782.13;5060140;28;20298;-75
2024/02/03 09:40:22;;;;;;;14.47;3.70;;;;;;;6.86;100.00;101627.81;5061630;28;20190;-74
2024/02/03 09:42:49;;;;;;;8.90;2.70;;;;;;;9.46;100.00;102058.91;5062159;28;20230;-74
2024/02/03 09:45:14;;;;;;;11.67;2.80;;;;;;;7.31;100.00;101754.84;5060685;28;20198;-75
2024/02/03 09:47:41;;;;;;;14.90;4.27;;;;;;;8.22;100.00;101892.56;5066687;28;20465;-74
2024/02/03 09:50:07;;;;;;;16.77;3.30;;;;;;;7.27;100.00;101678.78;5064073;28;20522;-74
2024/02/03 09:52:34;;;;;;;14.13;3.83;;;;;;;8.03;100.00;101870.38;5064817;28;20441;-74
2024/02/03 09:55:00;;;;;;;16.57;4.10;;;;;;;6.77;100.00;101580.75;5065902;28;20458;-75
2024/02/03 09:57:26;;;;;;;12.73;3.53;;;;;;;7.64;100.00;101715.88;5064061;28;20472;-75
2024/02/03 09:59:52;;;;;;;9.37;2.70;;;;;;;7.08;100.00;101625.59;5062289;28;20441;-75
2024/02/03 10:02:18;;;;;;;10.95;2.70;;;;;;;9.74;100.00;102072.88;5066173;28;20442;-74
2024/02/03 10:04:45;;;;;;;13.90;2.80;;;;;;;8.12;100.00;101812.47;5061315;28;20449;-74
2024/02/03 10:07:11;;;;;;;12.57;3.20;;;;;;;7.14;100.00;101673.00;5054667;28;20448;-74
2024/02/03 10:09:37;;;;;;;13.90;4.00;;;;;;;7.96;100.00;101733.06;5061363;28;20984;-74
2024/02/03 10:12:03;;;;;;;15.90;4.00;;;;;;;7.68;100.00;101722.56;5061094;28;20448;-74
2024/02/03 10:14:29;;;;;;;13.20;3.07;;;;;;;9.10;100.00;101903.00;5050916;28;20188;-75
2024/02/03 10:16:55;;;;;;;28.83;4.77;;;;;;;7.40;100.00;101663.16;5056833;28;20578;-75
2024/02/03 10:19:20;;;;;;;17.20;4.63;;;;;;;7.08;100.00;101569.59;5060343;28;20448;-75
2024/02/03 10:21:46;;;;;;;12.33;3.13;;;;;;;7.88;100.00;101741.88;5062803;28;20198;-75
2024/02/03 10:24:19;;;;;;;11.03;2.87;;;;;;;8.11;100.00;101800.13;5057636;28;20194;-75
2024/02/03 10:26:44;;;;;;;12.60;2.73;;;;;;;7.43;100.00;101652.19;5064213;28;20442;-75
2024/02/03 10:29:16;;;;;;;12.00;2.70;;;;;;;8.46;100.00;101825.03;5060594;28;20484;-75
2024/02/03 10:31:48;;;;;;;11.33;2.83;;;;;;;7.88;100.00;101733.03;5073727;28;20321;-75
2024/02/03 10:34:14;;;;;;;11.97;2.60;;;;;;;8.17;100.00;101788.78;5060142;28;20444;-75
2024/02/03 10:36:39;;;;;;;12.13;3.17;;;;;;;8.38;100.00;101801.72;5064045;28;20464;-74
2024/02/03 10:39:06;;;;;;;16.50;3.40;;;;;;;7.88;100.00;101757.06;5061175;28;21229;-74
2024/02/03 10:41:36;;;;;;;7.00;2.70;;;;;;;8.99;100.00;101950.44;5056967;28;20278;-74
2024/02/03 10:44:06;;;;;;;14.07;2.80;;;;;;;8.35;100.00;101788.69;5056511;28;20761;-75
2024/02/03 10:49:38;;;;;;;13.60;2.50;;;;;;;7.73;100.00;101690.06;5029974;22;20485;-74
2024/02/03 10:52:10;;;;;;;20.37;3.03;;;;;;;8.46;100.00;101822.34;5023450;28;20437;-74
2024/02/03 10:54:36;;;;;;;16.67;3.47;;;;;;;10.19;100.00;102109.19;5019488;28;20924;-75
2024/02/03 10:57:05;;;;;;;18.27;3.77;;;;;;;9.05;100.00;101844.59;5013023;28;20445;-76
2024/02/03 10:59:36;;;;;;;17.23;3.13;;;;;;;8.55;100.00;101758.03;5030676;28;21344;-77
2024/02/03 11:02:27;;;;;;;16.93;3.00;;;;;;;8.59;100.00;101830.75;5027165;28;20516;-78
2024/02/03 11:04:58;;;;;;;10.50;2.57;;;;;;;8.66;100.00;101834.47;5027494;28;20443;-77
2024/02/03 11:07:35;;;;;;;11.90;2.90;;;;;;;9.21;100.00;101858.03;5034518;28;20517;-76
2024/02/03 11:10:06;;;;;;;19.53;3.30;;;;;;;9.19;100.00;101854.66;5038884;28;20851;-77
2024/02/03 11:12:40;;;;;;;12.90;2.70;;;;;;;8.45;100.00;101735.97;5041264;28;20454;-77
2024/02/03 11:15:14;;;;;;;14.03;2.90;;;;;;;8.13;100.00;101763.38;5027147;28;20974;-76
2024/02/03 11:17:47;;;;;;;17.60;3.50;;;;;;;7.71;100.00;101649.31;5026944;28;20444;-75